Time;durP1;ratioP1;P1;durP2;ratioP2;P2;SDS_P1;SDS_P2;PMS_P1;PMS_P2;Temp;Humidity;BMP_temperature;BMP_pressure;BME280_temperature;BME280_humidity;BME280_pressure;Samples;Min_cycle;Max_cycle;Signal;HPM_P1;HPM_P2
2023/07/28 00:00:43;;;;;;;24.42;7.75;;;;;;;;;;4230321;28;20079;-80
2023/07/28 00:02:44;;;;;;;25.88;7.80;;;;;;;;;;4232524;28;20466;-80
2023/07/28 00:04:45;;;;;;;24.92;8.77;;;;;;;;;;4230902;28;20475;-80
2023/07/28 00:06:46;;;;;;;32.03;8.30;;;;;;;;;;4232638;28;20063;-80
2023/07/28 00:08:47;;;;;;;32.10;8.73;;;;;;;;;;4232437;28;20543;-80
2023/07/28 00:10:48;;;;;;;28.67;8.38;;;;;;;;;;4231474;28;20040;-80
2023/07/28 00:12:49;;;;;;;27.67;9.68;;;;;;;;;;4232260;28;20047;-81
2023/07/28 00:14:50;;;;;;;22.75;8.18;;;;;;;;;;4232045;28;20555;-80
2023/07/28 00:16:55;;;;;;;28.90;9.75;;;;;;;;;;4232358;28;20471;-80
2023/07/28 00:18:56;;;;;;;29.73;8.45;;;;;;;;;;4230811;28;20487;-80
2023/07/28 00:20:57;;;;;;;32.80;9.07;;;;;;;;;;4231643;28;20035;-80
2023/07/28 00:22:58;;;;;;;22.10;8.65;;;;;;;;;;4232241;28;20044;-80
2023/07/28 00:25:00;;;;;;;29.73;9.93;;;;;;;;;;4231561;28;20392;-80
2023/07/28 00:27:01;;;;;;;38.22;10.82;;;;;;;;;;4232056;28;20046;-80
2023/07/28 00:29:06;;;;;;;26.85;9.07;;;;;;;;;;4232417;28;20047;-80
2023/07/28 00:31:07;;;;;;;28.38;8.45;;;;;;;;;;4230851;28;20054;-80
2023/07/28 00:33:08;;;;;;;28.08;8.82;;;;;;;;;;4232091;28;20047;-80
2023/07/28 00:35:09;;;;;;;22.33;8.57;;;;;;;;;;4230864;28;20040;-80
2023/07/28 00:37:10;;;;;;;27.85;8.80;;;;;;;;;;4231997;28;20052;-80
2023/07/28 00:39:11;;;;;;;23.27;9.13;;;;;;;;;;4232053;28;20048;-80
2023/07/28 00:41:12;;;;;;;25.20;9.27;;;;;;;;;;4231499;28;20460;-80
2023/07/28 00:43:13;;;;;;;21.83;7.85;;;;;;;;;;4231766;28;20062;-80
2023/07/28 00:45:14;;;;;;;25.30;8.05;;;;;;;;;;4230361;28;20047;-80
2023/07/28 00:47:15;;;;;;;23.58;7.80;;;;;;;;;;4230312;28;20097;-80
2023/07/28 00:49:17;;;;;;;24.48;9.20;;;;;;;;;;4231864;28;20043;-80
2023/07/28 00:51:18;;;;;;;24.05;9.02;;;;;;;;;;4231287;28;20134;-80
2023/07/28 00:53:20;;;;;;;22.83;8.70;;;;;;;;;;4231838;28;20079;-80
2023/07/28 00:55:21;;;;;;;22.38;8.45;;;;;;;;;;4231660;28;20126;-81
2023/07/28 00:57:22;;;;;;;19.75;7.75;;;;;;;;;;4230940;28;20150;-80
2023/07/28 00:59:23;;;;;;;23.02;8.75;;;;;;;;;;4231383;28;20573;-80
2023/07/28 01:01:24;;;;;;;19.50;8.80;;;;;;;;;;4231278;28;20040;-80
2023/07/28 01:03:28;;;;;;;21.00;8.32;;;;;;;;;;4231499;28;20050;-80
2023/07/28 01:05:39;;;;;;;20.73;8.50;;;;;;;;;;4231059;28;20040;-80
2023/07/28 01:08:06;;;;;;;32.97;9.55;;;;;;;;;;4231520;28;20043;-80
2023/07/28 01:10:23;;;;;;;20.85;7.57;;;;;;;;;;4226910;28;20134;-80
2023/07/28 01:12:24;;;;;;;25.23;9.43;;;;;;;;;;4229942;28;20044;-80
2023/07/28 01:14:25;;;;;;;27.25;8.70;;;;;;;;;;4231320;28;20131;-80
2023/07/28 01:16:27;;;;;;;20.67;8.13;;;;;;;;;;4229735;28;20062;-80
2023/07/28 01:18:28;;;;;;;25.10;8.32;;;;;;;;;;4231020;28;20132;-80
2023/07/28 01:20:30;;;;;;;29.30;8.20;;;;;;;;;;4231106;28;20046;-81
2023/07/28 01:22:31;;;;;;;30.77;8.82;;;;;;;;;;4231530;28;20051;-80
2023/07/28 01:24:45;;;;;;;20.52;8.63;;;;;;;;;;4231528;28;20450;-81
2023/07/28 01:26:47;;;;;;;20.50;8.75;;;;;;;;;;4230440;28;20043;-80
2023/07/28 01:28:48;;;;;;;26.67;8.60;;;;;;;;;;4231125;28;20046;-80
2023/07/28 01:30:49;;;;;;;23.92;8.98;;;;;;;;;;4230886;28;20040;-80
2023/07/28 01:32:50;;;;;;;29.83;10.63;;;;;;;;;;4231044;28;20043;-80
2023/07/28 01:34:51;;;;;;;20.55;8.52;;;;;;;;;;4229313;28;20535;-81
2023/07/28 01:36:52;;;;;;;22.48;8.50;;;;;;;;;;4231031;28;20407;-80
2023/07/28 01:38:54;;;;;;;34.13;9.75;;;;;;;;;;4230633;28;20040;-81
2023/07/28 01:40:55;;;;;;;29.30;9.55;;;;;;;;;;4230975;28;20035;-80
2023/07/28 01:42:56;;;;;;;29.70;9.55;;;;;;;;;;4229635;28;20046;-80
2023/07/28 01:44:57;;;;;;;34.58;9.70;;;;;;;;;;4230806;28;20047;-80
2023/07/28 01:46:58;;;;;;;36.40;10.38;;;;;;;;;;4231127;28;20165;-80
2023/07/28 01:48:59;;;;;;;31.38;9.45;;;;;;;;;;4230452;28;20069;-80
2023/07/28 01:51:00;;;;;;;26.20;9.57;;;;;;;;;;4230674;28;20120;-80
2023/07/28 01:53:01;;;;;;;23.13;9.10;;;;;;;;;;4230875;28;20459;-80
2023/07/28 01:55:02;;;;;;;34.05;9.68;;;;;;;;;;4229222;28;20055;-80
2023/07/28 01:57:04;;;;;;;28.92;9.30;;;;;;;;;;4231073;28;20119;-80
2023/07/28 01:59:05;;;;;;;26.40;8.35;;;;;;;;;;4229939;28;20059;-80
2023/07/28 02:01:06;;;;;;;26.00;8.95;;;;;;;;;;4229219;28;20066;-80
2023/07/28 02:03:07;;;;;;;32.25;9.65;;;;;;;;;;4230760;28;20063;-80
2023/07/28 02:05:08;;;;;;;22.95;8.57;;;;;;;;;;4230609;28;20484;-80
2023/07/28 02:07:09;;;;;;;23.88;9.25;;;;;;;;;;4229234;28;20035;-80
2023/07/28 02:09:10;;;;;;;28.33;8.48;;;;;;;;;;4230761;28;20479;-80
2023/07/28 02:11:11;;;;;;;22.95;8.68;;;;;;;;;;4230376;28;20051;-80
2023/07/28 02:13:12;;;;;;;27.98;8.77;;;;;;;;;;4230797;28;20043;-80
2023/07/28 02:15:14;;;;;;;27.92;8.95;;;;;;;;;;4230306;28;20073;-80
2023/07/28 02:17:15;;;;;;;22.85;8.00;;;;;;;;;;4230115;28;20044;-80
2023/07/28 02:19:16;;;;;;;21.25;7.85;;;;;;;;;;4230640;28;20494;-80
2023/07/28 02:21:17;;;;;;;20.23;7.50;;;;;;;;;;4230240;28;20040;-80
2023/07/28 02:23:18;;;;;;;22.17;8.65;;;;;;;;;;4230700;28;20066;-80
2023/07/28 02:25:19;;;;;;;19.55;8.30;;;;;;;;;;4230101;28;20090;-80
2023/07/28 02:27:20;;;;;;;19.40;8.25;;;;;;;;;;4230565;28;20081;-80
2023/07/28 02:29:21;;;;;;;20.40;7.40;;;;;;;;;;4230525;28;20044;-80
2023/07/28 02:31:22;;;;;;;17.98;7.43;;;;;;;;;;4229962;28;20079;-80
2023/07/28 02:33:23;;;;;;;17.20;7.88;;;;;;;;;;4229360;28;20047;-80
2023/07/28 02:35:24;;;;;;;17.42;8.02;;;;;;;;;;4229268;28;20126;-80
2023/07/28 02:37:26;;;;;;;30.48;8.25;;;;;;;;;;4230386;28;20044;-80
2023/07/28 02:39:27;;;;;;;22.88;8.05;;;;;;;;;;4229429;28;20044;-80
2023/07/28 02:41:28;;;;;;;20.80;8.20;;;;;;;;;;4230250;28;20036;-80
2023/07/28 02:43:29;;;;;;;19.48;7.85;;;;;;;;;;4229997;28;20039;-80
2023/07/28 02:45:30;;;;;;;18.75;8.38;;;;;;;;;;4230185;28;20066;-80
2023/07/28 02:47:31;;;;;;;21.33;8.02;;;;;;;;;;4230201;28;20047;-80
2023/07/28 02:49:32;;;;;;;28.35;8.10;;;;;;;;;;4230492;28;20044;-80
2023/07/28 02:51:36;;;;;;;30.85;8.00;;;;;;;;;;4230078;28;20044;-80
2023/07/28 02:53:37;;;;;;;23.80;8.52;;;;;;;;;;4230368;28;20099;-80
2023/07/28 02:55:42;;;;;;;24.13;8.30;;;;;;;;;;4229809;28;20420;-80
2023/07/28 02:57:43;;;;;;;20.75;8.23;;;;;;;;;;4230515;28;20044;-80
2023/07/28 02:59:44;;;;;;;23.08;8.77;;;;;;;;;;4230222;28;20058;-80
2023/07/28 03:01:45;;;;;;;27.55;8.65;;;;;;;;;;4229958;28;20051;-80
2023/07/28 03:03:47;;;;;;;28.75;9.15;;;19.30;99.90;;;;;;4230417;28;20441;-80
2023/07/28 03:05:51;;;;;;;27.70;9.15;;;18.10;99.90;;;;;;4229047;28;20047;-80
2023/07/28 03:07:52;;;;;;;25.05;9.38;;;18.10;99.90;;;;;;4231955;28;20046;-80
2023/07/28 03:09:53;;;;;;;28.90;9.15;;;18.10;99.90;;;;;;4233177;28;20031;-80
2023/07/28 03:11:54;;;;;;;25.90;8.70;;;18.10;99.90;;;;;;4233487;28;20040;-80
2023/07/28 03:13:55;;;;;;;30.75;9.10;;;18.10;99.90;;;;;;4233518;28;20040;-80
2023/07/28 03:15:55;;;;;;;39.10;10.50;;;18.10;99.90;;;;;;4233310;28;20078;-80
2023/07/28 03:17:56;;;;;;;25.15;8.27;;;18.10;99.90;;;;;;4232671;28;20035;-80
2023/07/28 03:19:56;;;;;;;32.28;10.00;;;18.10;99.90;;;;;;4232594;28;20126;-80
2023/07/28 03:21:57;;;;;;;26.45;9.48;;;18.10;99.90;;;;;;4232926;28;20402;-80
2023/07/28 03:23:58;;;;;;;25.95;9.18;;;18.10;99.90;;;;;;4233175;28;20040;-80
2023/07/28 03:25:58;;;;;;;29.15;9.52;;;18.10;99.90;;;;;;4232974;28;20078;-80
2023/07/28 03:28:00;;;;;;;27.20;9.82;;;18.10;99.90;;;;;;4231803;28;20035;-80
2023/07/28 03:30:01;;;;;;;36.35;9.52;;;18.10;99.90;;;;;;4231951;28;20043;-80
2023/07/28 03:32:02;;;;;;;22.52;9.55;;;18.00;99.90;;;;;;4231990;28;20081;-80
2023/07/28 03:34:04;;;;;;;28.08;9.32;;;18.00;99.90;;;;;;4233082;28;20055;-80
2023/07/28 03:36:04;;;;;;;21.77;9.05;;;18.10;99.90;;;;;;4232725;28;20047;-80
2023/07/28 03:38:05;;;;;;;28.80;9.23;;;18.10;99.90;;;;;;4231640;28;20472;-80
2023/07/28 03:40:06;;;;;;;28.77;9.27;;;18.10;99.90;;;;;;4232751;28;20483;-80
2023/07/28 03:42:07;;;;;;;26.90;9.88;;;18.00;99.90;;;;;;4232927;28;20050;-80
2023/07/28 03:44:08;;;;;;;31.13;9.02;;;18.00;99.90;;;;;;4232176;28;20086;-80
2023/07/28 03:46:09;;;;;;;29.67;11.07;;;18.00;99.90;;;;;;4232465;28;20503;-80
2023/07/28 03:48:09;;;;;;;22.58;9.60;;;18.00;99.90;;;;;;4232918;28;20044;-80
2023/07/28 03:50:10;;;;;;;27.73;9.82;;;18.00;99.90;;;;;;4232602;28;20079;-80
2023/07/28 03:52:11;;;;;;;29.25;9.27;;;18.00;99.90;;;;;;4232817;28;20100;-80
2023/07/28 03:54:11;;;;;;;28.45;9.00;;;18.00;99.90;;;;;;4232616;28;20079;-80
2023/07/28 03:56:12;;;;;;;29.35;8.93;;;18.00;99.90;;;;;;4231037;28;20048;-80
2023/07/28 03:58:12;;;;;;;26.08;9.27;;;18.00;99.90;;;;;;4232393;28;20035;-80
2023/07/28 04:00:13;;;;;;;26.40;7.93;;;18.00;99.90;;;;;;4230527;28;20051;-80
2023/07/28 04:02:14;;;;;;;23.80;7.78;;;18.00;99.90;;;;;;4232494;28;20043;-80
2023/07/28 04:04:15;;;;;;;26.67;8.55;;;18.00;99.90;;;;;;4231472;28;20070;-80
2023/07/28 04:06:16;;;;;;;22.92;7.75;;;18.00;99.90;;;;;;4232424;28;20082;-80
2023/07/28 04:08:17;;;;;;;22.65;7.50;;;18.00;99.90;;;;;;4231992;28;20036;-80
2023/07/28 04:10:17;;;;;;;25.65;7.70;;;18.00;99.90;;;;;;4232211;28;20044;-80
2023/07/28 04:12:18;;;;;;;26.33;7.63;;;18.00;99.90;;;;;;4232236;28;20040;-80
2023/07/28 04:14:18;;;;;;;24.77;8.65;;;18.00;99.90;;;;;;4232276;28;20423;-80
2023/07/28 04:16:19;;;;;;;19.02;6.80;;;18.10;99.90;;;;;;4232004;28;20043;-80
2023/07/28 04:18:20;;;;;;;21.17;7.30;;;18.10;99.90;;;;;;4231707;28;20050;-80
2023/07/28 04:20:20;;;;;;;28.25;7.35;;;18.10;99.90;;;;;;4232130;28;20054;-80
2023/07/28 04:22:21;;;;;;;20.83;6.97;;;18.10;99.90;;;;;;4232376;28;20639;-80
2023/07/28 04:24:22;;;;;;;18.20;6.43;;;18.10;99.90;;;;;;4230893;28;20047;-80
2023/07/28 04:26:24;;;;;;;23.23;6.10;;;18.00;99.90;;;;;;4231656;28;20156;-80
2023/07/28 04:28:24;;;;;;;23.48;7.32;;;18.00;99.90;;;;;;4232172;28;20059;-80
2023/07/28 04:30:25;;;;;;;21.83;6.13;;;18.00;99.90;;;;;;4231752;28;20044;-80
2023/07/28 04:32:26;;;;;;;22.02;6.10;;;18.10;99.90;;;;;;4231536;28;20042;-81
2023/07/28 04:34:27;;;;;;;18.48;5.95;;;18.10;99.90;;;;;;4231855;28;20092;-80
2023/07/28 04:36:27;;;;;;;36.65;7.88;;;18.10;99.90;;;;;;4231452;28;20044;-81
2023/07/28 04:38:28;;;;;;;21.20;7.07;;;18.10;99.90;;;;;;4231727;28;20122;-80
2023/07/28 04:40:29;;;;;;;23.02;6.45;;;18.10;99.90;;;;;;4229615;28;20494;-80
2023/07/28 04:42:29;;;;;;;23.83;6.72;;;18.10;99.90;;;;;;4231755;28;20071;-80
2023/07/28 04:44:30;;;;;;;23.85;6.38;;;18.10;99.90;;;;;;4231826;28;20040;-80
2023/07/28 04:46:30;;;;;;;19.95;6.03;;;18.10;99.90;;;;;;4231111;28;20097;-80
2023/07/28 04:48:31;;;;;;;29.40;6.57;;;18.10;99.90;;;;;;4231717;28;20051;-80
2023/07/28 04:50:33;;;;;;;18.60;6.45;;;18.10;99.90;;;;;;4230663;28;20054;-80
2023/07/28 04:52:34;;;;;;;27.27;7.63;;;18.10;99.90;;;;;;4231279;27;20042;-80
2023/07/28 04:54:34;;;;;;;19.17;6.97;;;18.10;99.90;;;;;;4231672;28;20558;-80
2023/07/28 04:56:35;;;;;;;14.35;5.88;;;18.10;99.90;;;;;;4231035;28;20044;-80
2023/07/28 04:58:36;;;;;;;22.95;6.40;;;18.10;99.90;;;;;;4213141;28;20553;-80
2023/07/28 05:00:36;;;;;;;17.73;7.18;;;18.10;99.90;;;;;;4230523;28;20070;-80
2023/07/28 05:02:37;;;;;;;14.10;6.40;;;18.10;99.90;;;;;;4231298;28;20118;-80
2023/07/28 05:04:38;;;;;;;15.50;6.15;;;18.10;99.90;;;;;;4231447;28;20042;-80
2023/07/28 05:06:38;;;;;;;20.13;6.65;;;18.20;99.90;;;;;;4230971;28;20044;-79
2023/07/28 05:08:39;;;;;;;15.32;5.65;;;18.20;99.90;;;;;;4230757;28;20127;-80
2023/07/28 05:10:41;;;;;;;13.18;6.20;;;18.20;99.90;;;;;;4230794;28;20046;-80
2023/07/28 05:12:44;;;;;;;13.50;5.57;;;18.20;99.90;;;;;;4231190;28;20090;-80
2023/07/28 05:14:44;;;;;;;18.98;6.30;;;18.20;99.90;;;;;;4231016;28;20088;-80
2023/07/28 05:16:46;;;;;;;15.23;5.88;;;18.30;99.90;;;;;;4230830;28;20543;-80
2023/07/28 05:18:47;;;;;;;12.50;5.97;;;18.20;99.90;;;;;;4230988;28;20039;-80
2023/07/28 05:20:47;;;;;;;19.70;5.75;;;18.20;99.90;;;;;;4230532;28;20119;-80
2023/07/28 05:22:48;;;;;;;17.48;5.80;;;18.20;99.90;;;;;;4230151;28;20059;-80
2023/07/28 05:24:49;;;;;;;11.52;6.20;;;18.30;99.90;;;;;;4231063;28;20044;-80
2023/07/28 05:26:49;;;;;;;20.08;6.13;;;18.30;99.90;;;;;;4231065;28;20044;-80
2023/07/28 05:28:50;;;;;;;21.20;6.10;;;18.20;99.90;;;;;;4230638;28;20124;-80
2023/07/28 05:30:51;;;;;;;10.45;4.97;;;18.30;99.90;;;;;;4229023;28;20051;-80
2023/07/28 05:32:54;;;;;;;13.93;5.53;;;18.30;99.90;;;;;;4230836;28;20050;-80
2023/07/28 05:34:54;;;;;;;15.95;5.28;;;18.20;99.90;;;;;;4229706;28;20044;-80
2023/07/28 05:36:55;;;;;;;15.27;5.82;;;18.30;99.90;;;;;;4230654;28;20043;-80
2023/07/28 05:38:57;;;;;;;14.35;6.10;;;18.30;99.90;;;;;;4231073;28;20075;-80
2023/07/28 05:41:00;;;;;;;11.85;4.80;;;18.30;99.90;;;;;;4230633;28;20079;-80
2023/07/28 05:43:01;;;;;;;13.07;5.55;;;18.30;99.90;;;;;;4230212;28;20130;-80
2023/07/28 05:45:03;;;;;;;12.18;5.53;;;18.30;99.90;;;;;;4230722;28;20047;-80
2023/07/28 05:47:04;;;;;;;17.73;5.55;;;18.30;99.90;;;;;;4230649;28;20043;-80
2023/07/28 05:49:05;;;;;;;16.73;6.10;;;18.30;99.90;;;;;;4229476;28;20092;-80
2023/07/28 05:51:06;;;;;;;13.93;5.55;;;18.30;99.90;;;;;;4230621;28;20040;-79
2023/07/28 05:53:07;;;;;;;17.27;6.15;;;18.30;99.90;;;;;;4229665;28;20043;-80
2023/07/28 05:55:08;;;;;;;18.00;5.28;;;18.30;99.90;;;;;;4230217;28;20035;-80
2023/07/28 05:57:09;;;;;;;15.35;5.28;;;18.40;99.90;;;;;;4229708;28;20040;-80
2023/07/28 05:59:10;;;;;;;12.57;5.07;;;18.40;99.90;;;;;;4230261;28;20056;-80
2023/07/28 06:01:10;;;;;;;8.98;4.18;;;18.40;99.90;;;;;;4230331;28;20446;-79
2023/07/28 06:03:14;;;;;;;8.07;4.70;;;18.40;99.90;;;;;;4230541;28;20415;-80
2023/07/28 06:05:14;;;;;;;16.55;4.78;;;18.40;99.90;;;;;;4229652;28;20040;-80
2023/07/28 06:07:17;;;;;;;13.43;5.18;;;18.40;99.90;;;;;;4230873;28;20038;-80
2023/07/28 06:09:17;;;;;;;17.98;5.20;;;18.40;99.90;;;;;;4230620;28;20039;-80
2023/07/28 06:11:18;;;;;;;13.32;5.13;;;18.40;99.90;;;;;;4230426;28;20032;-80
2023/07/28 06:13:19;;;;;;;14.52;5.28;;;18.40;99.90;;;;;;4230543;28;20413;-80
2023/07/28 06:15:20;;;;;;;15.10;5.22;;;18.50;99.90;;;;;;4229696;28;20075;-80
2023/07/28 06:17:20;;;;;;;10.07;4.63;;;18.50;99.90;;;;;;4230583;28;20036;-80
2023/07/28 06:19:23;;;;;;;10.32;4.90;;;18.50;99.90;;;;;;4230418;28;20130;-80
2023/07/28 06:21:24;;;;;;;14.70;5.72;;;18.50;99.90;;;;;;4230329;28;20050;-80
2023/07/28 06:23:25;;;;;;;12.48;5.03;;;18.50;99.90;;;;;;4230815;28;20123;-80
2023/07/28 06:25:26;;;;;;;13.73;5.32;;;18.50;99.90;;;;;;4229959;28;20126;-80
2023/07/28 06:27:27;;;;;;;12.25;5.45;;;18.50;99.90;;;;;;4230334;28;20039;-80
2023/07/28 06:29:27;;;;;;;11.75;5.00;;;18.50;99.90;;;;;;4229212;28;20109;-80
2023/07/28 06:31:28;;;;;;;10.60;4.85;;;18.50;99.90;;;;;;4230255;28;20135;-80
2023/07/28 06:33:29;;;;;;;11.75;5.40;;;18.60;99.90;;;;;;4230614;28;20116;-80
2023/07/28 06:35:29;;;;;;;14.52;5.25;;;18.60;99.90;;;;;;4230052;28;20035;-80
2023/07/28 06:37:30;;;;;;;11.27;5.05;;;18.70;99.90;;;;;;4230064;28;20082;-80
2023/07/28 06:39:31;;;;;;;9.85;5.10;;;18.70;99.90;;;;;;4230670;28;20483;-80
2023/07/28 06:41:31;;;;;;;8.63;5.65;;;18.70;99.90;;;;;;4229084;28;20046;-80
2023/07/28 06:43:32;;;;;;;13.73;6.57;;;18.70;99.90;;;;;;4233240;28;20081;-80
2023/07/28 06:45:33;;;;;;;12.75;6.25;;;18.80;99.90;;;;;;4233317;28;20126;-80
2023/07/28 06:47:34;;;;;;;10.45;6.28;;;18.80;99.90;;;;;;4233917;28;20051;-80
2023/07/28 06:49:34;;;;;;;11.85;6.28;;;18.80;99.90;;;;;;4233889;27;20039;-80
2023/07/28 06:51:35;;;;;;;9.30;5.40;;;18.90;99.90;;;;;;4232925;28;20075;-80
2023/07/28 06:53:36;;;;;;;9.60;6.35;;;18.90;99.90;;;;;;4233723;28;20051;-80
2023/07/28 06:55:38;;;;;;;9.07;5.75;;;19.00;99.90;;;;;;4233249;28;20078;-80
2023/07/28 06:57:39;;;;;;;9.68;4.68;;;19.00;99.90;;;;;;4233342;28;20035;-80
2023/07/28 06:59:40;;;;;;;6.45;4.95;;;18.90;99.90;;;;;;4232667;28;20052;-80
2023/07/28 07:01:41;;;;;;;8.48;5.57;;;18.90;99.90;;;;;;4231646;28;20350;-80
2023/07/28 07:03:41;;;;;;;11.25;5.72;;;18.90;99.90;;;;;;4232304;28;20499;-80
2023/07/28 07:05:43;;;;;;;8.27;5.90;;;18.90;99.90;;;;;;4233231;28;20043;-80
2023/07/28 07:07:44;;;;;;;8.75;5.57;;;18.90;99.90;;;;;;4232210;28;20075;-80
2023/07/28 07:09:45;;;;;;;8.40;5.63;;;18.90;99.90;;;;;;4233457;28;20050;-80
2023/07/28 07:11:45;;;;;;;10.07;5.72;;;18.90;99.90;;;;;;4232456;28;20036;-80
2023/07/28 07:13:46;;;;;;;8.35;5.88;;;19.00;99.90;;;;;;4232921;28;20150;-80
2023/07/28 07:15:47;;;;;;;7.38;5.05;;;19.10;99.90;;;;;;4233036;28;20429;-80
2023/07/28 07:17:47;;;;;;;8.85;5.20;;;19.20;99.90;;;;;;4233108;28;20043;-80
2023/07/28 07:19:48;;;;;;;10.43;4.93;;;19.20;99.90;;;;;;4232994;28;20043;-80
2023/07/28 07:21:50;;;;;;;8.55;5.43;;;19.30;99.90;;;;;;4232239;28;20475;-80
2023/07/28 07:23:51;;;;;;;6.20;4.18;;;19.40;99.90;;;;;;4233008;27;20396;-80
2023/07/28 07:25:52;;;;;;;7.93;4.53;;;19.40;99.90;;;;;;4233027;28;20088;-80
2023/07/28 07:27:52;;;;;;;8.38;4.53;;;19.50;99.90;;;;;;4232918;28;20092;-80
2023/07/28 07:29:53;;;;;;;8.13;3.53;;;19.50;99.90;;;;;;4233024;28;20130;-80
2023/07/28 07:31:55;;;;;;;7.30;4.05;;;19.50;99.90;;;;;;4232585;28;20048;-80
2023/07/28 07:33:56;;;;;;;6.90;3.63;;;19.50;99.90;;;;;;4232742;27;20039;-81
2023/07/28 07:35:57;;;;;;;5.78;3.97;;;19.50;99.90;;;;;;4232054;27;20127;-81
2023/07/28 07:37:58;;;;;;;6.82;4.00;;;19.50;99.90;;;;;;4232673;28;20036;-80
2023/07/28 07:40:00;;;;;;;7.55;4.32;;;19.50;99.90;;;;;;4232949;28;20361;-81
2023/07/28 07:42:01;;;;;;;6.63;4.00;;;19.50;99.90;;;;;;4232552;28;20044;-80
2023/07/28 07:44:02;;;;;;;4.70;3.60;;;19.50;99.90;;;;;;4232330;28;20044;-80
2023/07/28 07:46:03;;;;;;;6.10;4.30;;;19.50;99.90;;;;;;4232680;28;20377;-81
2023/07/28 07:48:03;;;;;;;6.82;4.30;;;19.60;99.90;;;;;;4232240;28;20040;-81
2023/07/28 07:50:06;;;;;;;7.70;4.35;;;19.60;99.90;;;;;;4231637;28;20043;-80
2023/07/28 07:52:09;;;;;;;6.03;4.20;;;19.70;99.90;;;;;;4232609;28;20438;-80
2023/07/28 07:54:09;;;;;;;5.50;3.97;;;19.80;99.90;;;;;;4232043;28;20057;-80
2023/07/28 07:56:10;;;;;;;5.82;3.60;;;19.90;99.90;;;;;;4232445;28;20526;-80
2023/07/28 07:58:11;;;;;;;6.55;3.58;;;20.00;99.90;;;;;;4231721;28;20083;-80
2023/07/28 08:00:13;;;;;;;6.93;3.90;;;20.00;99.90;;;;;;4232157;28;20407;-80
2023/07/28 08:02:14;;;;;;;5.88;3.67;;;20.10;99.90;;;;;;4232355;28;20512;-80
2023/07/28 08:04:15;;;;;;;6.03;3.95;;;20.10;99.90;;;;;;4232492;28;20118;-81
2023/07/28 08:06:16;;;;;;;8.13;3.80;;;20.10;99.90;;;;;;4232281;28;20039;-80
2023/07/28 08:08:17;;;;;;;5.97;3.20;;;20.20;99.90;;;;;;4232191;28;20471;-80
2023/07/28 08:10:17;;;;;;;4.15;3.40;;;20.30;99.90;;;;;;4232306;28;20092;-80
2023/07/28 08:12:18;;;;;;;8.90;3.85;;;20.30;99.90;;;;;;4230952;28;20131;-80
2023/07/28 08:14:19;;;;;;;9.75;3.70;;;20.30;99.90;;;;;;4231917;28;20055;-80
2023/07/28 08:16:20;;;;;;;6.93;3.80;;;20.20;99.90;;;;;;4231989;28;20502;-81
2023/07/28 08:18:20;;;;;;;6.45;3.40;;;20.30;99.90;;;;;;4232113;28;20039;-81
2023/07/28 08:20:21;;;;;;;7.20;4.13;;;20.30;99.90;;;;;;4230773;28;20079;-80
2023/07/28 08:22:22;;;;;;;7.55;3.60;;;20.30;99.90;;;;;;4213843;28;20493;-81
2023/07/28 08:24:23;;;;;;;7.05;3.90;;;20.30;99.90;;;;;;4232092;28;20043;-81
2023/07/28 08:26:23;;;;;;;5.22;3.20;;;20.30;99.90;;;;;;4230710;28;20043;-81
2023/07/28 08:28:24;;;;;;;7.55;3.33;;;20.20;99.90;;;;;;4232294;28;20039;-81
2023/07/28 08:30:25;;;;;;;6.88;4.05;;;20.20;99.90;;;;;;4232047;28;20043;-80
2023/07/28 08:32:25;;;;;;;4.75;3.50;;;20.10;99.90;;;;;;4231013;28;20189;-80
2023/07/28 08:34:27;;;;;;;6.60;3.63;;;20.00;99.90;;;;;;4232284;28;20105;-80
2023/07/28 08:36:27;;;;;;;6.50;3.60;;;20.00;99.90;;;;;;4231317;28;20418;-81
2023/07/28 08:38:28;;;;;;;7.63;3.67;;;19.90;99.90;;;;;;4231760;28;20038;-81
2023/07/28 08:40:29;;;;;;;8.25;3.65;;;19.90;99.90;;;;;;4231589;28;20431;-81
2023/07/28 08:42:30;;;;;;;6.25;3.80;;;19.90;99.90;;;;;;4232012;28;20479;-81
2023/07/28 08:44:34;;;;;;;5.25;3.75;;;19.80;99.90;;;;;;4231571;28;20130;-81
2023/07/28 08:46:35;;;;;;;7.15;3.72;;;19.90;99.90;;;;;;4230729;28;20090;-80
2023/07/28 08:48:36;;;;;;;5.57;3.50;;;19.90;99.90;;;;;;4231573;28;20045;-81
2023/07/28 08:50:37;;;;;;;6.00;4.50;;;20.00;99.90;;;;;;4230064;28;20048;-81
2023/07/28 08:52:37;;;;;;;5.10;3.78;;;20.00;99.90;;;;;;4231937;28;20055;-81
2023/07/28 08:54:38;;;;;;;5.47;3.80;;;20.20;99.90;;;;;;4231635;28;20053;-79
2023/07/28 08:56:40;;;;;;;6.32;3.88;;;20.30;99.90;;;;;;4232336;28;20043;-81
2023/07/28 08:58:41;;;;;;;6.45;3.60;;;20.30;99.90;;;;;;4231732;28;20360;-81
2023/07/28 09:00:41;;;;;;;6.78;3.53;;;20.40;99.90;;;;;;4230485;28;20061;-81
2023/07/28 09:02:42;;;;;;;3.58;3.03;;;20.50;99.90;;;;;;4230585;28;20126;-81
2023/07/28 09:04:46;;;;;;;4.97;3.38;;;20.60;99.90;;;;;;4229754;28;20108;-81
2023/07/28 09:06:48;;;;;;;4.95;3.40;;;20.70;99.90;;;;;;4231157;28;20051;-81
2023/07/28 09:08:49;;;;;;;7.82;3.83;;;20.80;99.90;;;;;;4231822;28;20119;-81
2023/07/28 09:10:49;;;;;;;4.47;3.28;;;20.80;99.90;;;;;;4230768;28;20051;-81
2023/07/28 09:12:51;;;;;;;3.53;2.92;;;20.80;99.90;;;;;;4231275;28;20044;-81
2023/07/28 09:14:56;;;;;;;3.22;2.50;;;20.90;99.90;;;;;;4231170;28;20051;-81
2023/07/28 09:17:09;;;;;;;3.33;3.00;;;20.90;99.90;;;;;;4229830;28;20475;-81
2023/07/28 09:19:10;;;;;;;4.18;3.03;;;21.00;99.90;;;;;;4229745;28;20130;-81
2023/07/28 09:21:21;;;;;;;4.28;2.80;;;21.00;99.90;;;;;;4231016;27;20054;-81
2023/07/28 09:23:30;;;;;;;3.17;2.70;;;21.00;99.90;;;;;;4230698;28;20052;-81
2023/07/28 09:25:34;;;;;;;3.15;2.63;;;21.00;99.90;;;;;;4229430;28;20055;-81
2023/07/28 09:27:35;;;;;;;3.70;2.65;;;20.90;99.90;;;;;;4230259;28;20059;-81
2023/07/28 09:29:36;;;;;;;5.57;3.05;;;20.80;99.90;;;;;;4231549;28;20119;-81
2023/07/28 09:31:38;;;;;;;4.82;2.80;;;20.80;99.90;;;;;;4229559;28;20043;-81
2023/07/28 09:33:42;;;;;;;7.43;2.95;;;20.80;99.90;;;;;;4231299;28;20100;-81
2023/07/28 09:35:50;;;;;;;3.42;2.88;;;21.00;99.90;;;;;;4230601;28;20100;-81
2023/07/28 09:37:52;;;;;;;5.00;2.78;;;20.80;99.90;;;;;;4229531;28;20069;-81
2023/07/28 09:39:54;;;;;;;3.60;2.60;;;20.80;99.90;;;;;;4230897;28;20040;-81
2023/07/28 09:41:58;;;;;;;4.43;2.90;;;20.90;99.90;;;;;;4231537;28;20487;-81
2023/07/28 09:43:59;;;;;;;3.25;2.25;;;21.10;99.90;;;;;;4232123;28;20127;-81
2023/07/28 09:46:03;;;;;;;4.43;2.42;;;21.30;99.90;;;;;;4229736;28;20519;-81
2023/07/28 09:48:09;;;;;;;2.38;2.17;;;21.50;99.90;;;;;;4230690;28;20122;-81
2023/07/28 09:50:11;;;;;;;3.10;2.10;;;21.90;99.90;;;;;;4230138;28;20640;-81
2023/07/28 09:52:15;;;;;;;2.88;2.20;;;22.20;99.90;;;;;;4229533;28;20044;-81
2023/07/28 09:54:27;;;;;;;2.40;1.70;;;22.70;99.90;;;;;;4230727;28;20047;-81
2023/07/28 09:56:32;;;;;;;2.80;1.70;;;22.90;99.90;;;;;;4229962;28;20041;-82
2023/07/28 09:58:37;;;;;;;1.90;1.65;;;23.00;99.90;;;;;;4229412;28;20043;-81
2023/07/28 10:00:38;;;;;;;1.98;1.60;;;23.30;99.90;;;;;;4228758;28;20059;-81
2023/07/28 10:02:41;;;;;;;2.22;1.85;;;23.50;99.90;;;;;;4229543;28;20051;-81
2023/07/28 10:04:42;;;;;;;3.88;1.83;;;23.70;99.90;;;;;;4229501;28;20067;-81
2023/07/28 10:06:43;;;;;;;2.05;1.40;;;23.70;99.90;;;;;;4230101;28;20491;-82
2023/07/28 10:08:44;;;;;;;1.88;1.50;;;23.90;99.90;;;;;;4230851;28;20044;-81
2023/07/28 10:10:46;;;;;;;4.20;1.30;;;23.90;99.90;;;;;;4229040;28;20518;-79
2023/07/28 10:12:51;;;;;;;3.40;1.67;;;24.00;99.90;;;;;;4230634;28;20055;-82
2023/07/28 10:15:05;;;;;;;2.63;1.50;;;24.00;99.90;;;;;;4212980;28;20047;-81
2023/07/28 10:17:06;;;;;;;1.70;1.20;;;24.00;99.90;;;;;;4233166;28;20043;-79
2023/07/28 10:19:08;;;;;;;2.03;1.45;;;;;;;;;;4232693;28;20039;-81
2023/07/28 10:21:13;;;;;;;2.22;1.70;;;;;;;;;;4232736;28;20051;-79
2023/07/28 10:23:18;;;;;;;2.08;1.33;;;;;;;;;;4232520;28;20509;-79
2023/07/28 10:25:26;;;;;;;3.25;1.58;;;;;;;;;;4232739;28;20060;-80
2023/07/28 10:27:37;;;;;;;2.63;1.50;;;;;;;;;;4232769;28;20050;-80
2023/07/28 10:29:38;;;;;;;2.50;1.48;;;;;;;;;;4234119;28;20395;-80
2023/07/28 10:31:56;;;;;;;2.45;1.80;;;;;;;;;;4233418;27;20083;-80
2023/07/28 10:33:57;;;;;;;3.10;1.92;;;;;;;;;;4234895;28;20483;-80
2023/07/28 10:36:00;;;;;;;2.03;1.80;;;;;;;;;;4233924;28;20483;-80
2023/07/28 10:38:21;;;;;;;3.25;1.77;;;;;;;;;;4233825;28;20048;-80
2023/07/28 10:40:22;;;;;;;2.05;1.85;;;;;;;;;;4232325;28;20055;-80
2023/07/28 10:42:23;;;;;;;3.97;2.08;;;23.30;99.90;;;;;;4231990;28;20492;-80
2023/07/28 10:44:25;;;;;;;3.95;1.75;;;24.00;99.90;;;;;;4234176;28;20044;-80
2023/07/28 10:46:26;;;;;;;3.50;1.90;;;23.80;99.90;;;;;;4232850;28;20570;-80
2023/07/28 10:48:27;;;;;;;4.82;1.80;;;24.00;99.90;;;;;;4232245;28;20065;-80
2023/07/28 10:50:29;;;;;;;4.38;1.90;;;;;;;;;;4232151;28;20487;-80
2023/07/28 10:52:30;;;;;;;4.93;1.83;;;;;;;;;;4233595;28;20048;-80
2023/07/28 10:54:31;;;;;;;2.78;1.63;;;;;;;;;;4233598;28;20495;-80
2023/07/28 10:56:33;;;;;;;2.78;1.60;;;;;;;;;;4232146;28;20121;-80